Time,TemperatureF,DewpointF,PressureIn,WindDirection,WindDirectionDegrees,WindSpeedMPH,WindSpeedGustMPH,Humidity,HourlyPrecipIn,Conditions,Clouds,dailyrainin,SoftwareType,DateUTC
2013-04-13 00:00:00,49.7,27.0,29.82,SSW,211,0.0,0.0,41,0.00,,OVC070,0.51,VWS V12.08,2013-04-13 04:00:00,
2013-04-13 00:05:00,49.7,27.0,29.82,SW,226,0.0,0.0,41,0.00,,OVC070,0.00,VWS V12.08,2013-04-13 04:05:00,
2013-04-13 00:10:00,49.7,26.4,29.82,SSW,211,0.0,0.0,40,0.00,,OVC070,0.00,VWS V12.08,2013-04-13 04:10:00,
2013-04-13 00:15:00,49.7,27.5,29.82,SSW,205,0.0,0.0,42,0.00,,OVC070,0.00,VWS V12.08,2013-04-13 04:15:00,
2013-04-13 00:20:00,49.5,28.0,29.82,SW,235,0.0,0.0,43,0.00,,OVC070,0.00,VWS V12.08,2013-04-13 04:20:00,
2013-04-13 00:25:00,49.5,27.4,29.82,West,265,0.0,0.0,42,0.00,,OVC070,0.00,VWS V12.08,2013-04-13 04:25:00,
2013-04-13 00:30:00,49.5,27.4,29.82,SSW,211,0.0,0.0,42,0.00,,OVC070,0.00,VWS V12.08,2013-04-13 04:30:00,
2013-04-13 00:35:00,49.5,27.4,29.82,WSW,256,0.0,0.0,42,0.00,,OVC070,0.00,VWS V12.08,2013-04-13 04:35:00,
2013-04-13 00:40:00,49.3,27.2,29.82,SSW,205,0.0,0.0,42,0.00,,OVC070,0.00,VWS V12.08,2013-04-13 04:40:00,
2013-04-13 00:45:00,49.3,27.8,29.82,SW,220,0.0,0.0,43,0.00,,OVC070,0.00,VWS V12.08,2013-04-13 04:45:00,
2013-04-13 00:50:00,49.3,27.8,29.82,NW,306,0.0,0.0,43,0.00,,OVC050,0.00,VWS V12.08,2013-04-13 04:50:00,
2013-04-13 00:55:00,49.3,28.4,29.82,SW,215,0.0,0.0,44,0.00,,OVC050,0.00,VWS V12.08,2013-04-13 04:55:00,
2013-04-13 01:00:00,49.1,29.3,29.82,South,189,3.1,6.3,46,0.00,,OVC050,0.00,VWS V12.08,2013-04-13 05:00:00,
2013-04-13 01:05:00,49.1,28.7,29.82,West,274,3.6,8.3,45,0.00,,OVC050,0.00,VWS V12.08,2013-04-13 05:05:00,
2013-04-13 01:10:00,49.0,28.6,29.82,SW,230,7.6,10.5,45,0.00,,OVC050,0.00,VWS V12.08,2013-04-13 05:10:00,
2013-04-13 01:15:00,49.0,29.1,29.82,SW,227,4.0,6.3,46,0.00,,OVC050,0.00,VWS V12.08,2013-04-13 05:15:00,
2013-04-13 01:20:00,49.0,29.6,29.82,SW,223,0.0,0.0,47,0.00,,OVC050,0.00,VWS V12.08,2013-04-13 05:20:00,
2013-04-13 01:25:00,48.8,29.5,29.82,SW,221,0.0,0.0,47,0.00,,OVC050,0.00,VWS V12.08,2013-04-13 05:25:00,
2013-04-13 01:30:00,48.8,29.5,29.85,SSW,208,0.0,0.0,47,0.00,,OVC050,0.00,VWS V12.08,2013-04-13 05:30:00,
2013-04-13 01:35:00,48.6,29.3,29.85,NNE,19,0.0,0.0,47,0.00,,OVC050,0.00,VWS V12.08,2013-04-13 05:35:00,
2013-04-13 01:40:00,48.6,29.8,29.85,SW,215,0.0,0.0,48,0.00,,OVC050,0.00,VWS V12.08,2013-04-13 05:40:00,
2013-04-13 01:45:00,48.4,29.6,29.85,SSW,203,0.0,0.0,48,0.00,,OVC050,0.00,VWS V12.08,2013-04-13 05:45:00,
2013-04-13 01:50:00,48.2,29.5,29.85,SSW,194,0.0,0.0,48,0.00,,OVC050,0.00,VWS V12.08,2013-04-13 05:50:00,
2013-04-13 01:55:00,48.1,29.3,29.85,West,270,0.0,0.0,48,0.00,,OVC050,0.00,VWS V12.08,2013-04-13 05:55:00,
2013-04-13 02:00:00,47.7,29.5,29.85,SSW,204,4.0,6.3,49,0.00,,OVC050,0.00,VWS V12.08,2013-04-13 06:00:00,
2013-04-13 02:05:00,47.5,29.3,29.85,SW,214,3.1,4.9,49,0.00,,OVC050,0.00,VWS V12.08,2013-04-13 06:05:00,
2013-04-13 02:10:00,47.3,29.7,29.85,SW,224,0.0,0.0,50,0.00,,OVC050,0.00,VWS V12.08,2013-04-13 06:10:00,
2013-04-13 02:15:00,47.2,29.5,29.85,WSW,254,3.1,5.8,50,0.00,,OVC050,0.00,VWS V12.08,2013-04-13 06:15:00,
2013-04-13 02:20:00,47.0,29.8,29.85,SW,223,3.6,3.6,51,0.00,,OVC050,0.00,VWS V12.08,2013-04-13 06:20:00,
2013-04-13 02:25:00,46.8,30.1,29.85,West,264,5.4,5.4,52,0.00,,OVC050,0.00,VWS V12.08,2013-04-13 06:25:00,
2013-04-13 02:30:00,46.8,30.1,29.85,SW,218,5.8,6.3,52,0.00,,OVC050,0.00,VWS V12.08,2013-04-13 06:30:00,
2013-04-13 02:35:00,46.8,30.1,29.85,WSW,247,3.6,3.6,52,0.00,,OVC050,0.00,VWS V12.08,2013-04-13 06:35:00,
2013-04-13 02:40:00,46.6,29.5,29.85,WSW,241,4.9,7.6,51,0.00,,OVC050,0.00,VWS V12.08,2013-04-13 06:40:00,
2013-04-13 02:45:00,46.4,29.3,29.85,SW,231,3.1,4.0,51,0.00,,OVC060,0.00,VWS V12.08,2013-04-13 06:45:00,
2013-04-13 03:00:00,46.3,28.7,29.85,SW,224,5.4,5.8,50,0.00,,OVC060,0.00,VWS V12.08,2013-04-13 07:00:00,
2013-04-13 03:15:00,45.9,27.3,29.85,West,268,5.4,5.4,48,0.00,,OVC060,0.00,VWS V12.08,2013-04-13 07:15:00,
2013-04-13 03:30:00,45.2,27.7,29.85,SW,222,5.4,8.1,50,0.00,,OVC060,0.00,VWS V12.08,2013-04-13 07:30:00,
2013-04-13 03:45:00,44.5,27.0,29.85,West,264,4.9,4.9,50,0.00,,OVC060,0.00,VWS V12.08,2013-04-13 07:45:00,
2013-04-13 03:50:00,44.3,27.3,29.85,SW,225,3.6,4.9,51,0.00,,BKN055,0.00,VWS V12.08,2013-04-13 07:50:00,
2013-04-13 03:55:00,44.1,27.6,29.85,SW,230,3.6,3.6,52,0.00,,BKN055,0.00,VWS V12.08,2013-04-13 07:55:00,
2013-04-13 04:00:00,43.7,27.7,29.85,SW,235,0.0,0.0,53,0.00,,BKN055,0.00,VWS V12.08,2013-04-13 08:00:00,
2013-04-13 04:05:00,43.7,27.3,29.85,SSW,207,3.6,3.6,52,0.00,,BKN055,0.00,VWS V12.08,2013-04-13 08:05:00,
2013-04-13 04:10:00,43.6,28.5,29.85,SW,223,5.4,5.4,55,0.00,,BKN055,0.00,VWS V12.08,2013-04-13 08:10:00,
2013-04-13 04:15:00,43.4,27.4,29.85,SW,216,0.0,5.8,53,0.00,,BKN055,0.00,VWS V12.08,2013-04-13 08:15:00,
2013-04-13 04:21:00,43.2,27.2,29.85,West,264,5.8,5.8,53,0.00,,BKN055,0.00,VWS V12.08,2013-04-13 08:21:00,
2013-04-13 04:26:00,43.2,27.2,29.85,SW,219,0.0,3.1,53,0.00,,BKN055,0.00,VWS V12.08,2013-04-13 08:26:00,
2013-04-13 04:31:00,43.0,27.1,29.85,SSW,209,0.0,0.0,53,0.00,,BKN055,0.00,VWS V12.08,2013-04-13 08:31:00,
2013-04-13 04:37:00,42.7,26.7,29.85,WSW,240,4.0,6.3,53,0.00,,BKN055,0.00,VWS V12.08,2013-04-13 08:37:00,
2013-04-13 04:42:00,42.5,26.6,29.88,West,264,4.0,4.9,53,0.00,,BKN055,0.00,VWS V12.08,2013-04-13 08:42:00,
2013-04-13 04:47:00,42.3,25.9,29.88,WSW,248,5.4,5.8,52,0.00,,CLR,0.00,VWS V12.08,2013-04-13 08:47:00,
2013-04-13 04:52:00,42.5,25.2,29.88,SW,229,5.8,5.8,50,0.00,,CLR,0.00,VWS V12.08,2013-04-13 08:52:00,
2013-04-13 04:57:00,42.5,25.2,29.88,SW,236,4.0,5.4,50,0.00,,CLR,0.00,VWS V12.08,2013-04-13 08:57:00,
2013-04-13 05:02:00,42.3,25.0,29.88,SSW,203,4.0,4.0,50,0.00,,CLR,0.00,VWS V12.08,2013-04-13 09:02:00,
2013-04-13 05:08:00,42.3,24.5,29.88,SSW,201,4.9,6.3,49,0.00,,CLR,0.00,VWS V12.08,2013-04-13 09:08:00,
2013-04-13 05:13:00,41.9,24.7,29.88,WSW,253,4.9,5.8,50,0.00,,CLR,0.00,VWS V12.08,2013-04-13 09:13:00,
2013-04-13 05:18:00,41.8,25.0,29.88,West,274,4.0,5.4,51,0.00,,CLR,0.00,VWS V12.08,2013-04-13 09:18:00,
2013-04-13 05:23:00,41.8,24.5,29.88,SW,221,3.1,5.8,50,0.00,,CLR,0.00,VWS V12.08,2013-04-13 09:23:00,
2013-04-13 05:28:00,41.6,25.3,29.88,SW,235,4.9,5.4,52,0.00,,CLR,0.00,VWS V12.08,2013-04-13 09:28:00,
2013-04-13 05:33:00,41.2,24.5,29.88,SSW,205,4.0,4.0,51,0.00,,CLR,0.00,VWS V12.08,2013-04-13 09:33:00,
2013-04-13 05:39:00,41.2,24.0,29.88,South,191,4.0,4.0,50,0.00,,CLR,0.00,VWS V12.08,2013-04-13 09:39:00,
2013-04-13 05:44:00,41.0,24.3,29.88,WSW,249,0.0,3.6,51,0.00,,CLR,0.00,VWS V12.08,2013-04-13 09:44:00,
2013-04-13 05:49:00,40.7,24.4,29.88,SW,230,0.0,0.0,52,0.00,,FEW031,0.00,VWS V12.08,2013-04-13 09:49:00,
2013-04-13 05:54:00,40.7,24.9,29.88,SW,230,0.0,0.0,53,0.00,,FEW031,0.00,VWS V12.08,2013-04-13 09:54:00,
2013-04-13 05:59:00,40.5,24.3,29.85,SW,228,0.0,0.0,52,0.00,,FEW031,0.00,VWS V12.08,2013-04-13 09:59:00,
2013-04-13 06:04:00,40.1,24.4,29.85,SW,225,2.2,2.7,53,0.00,,FEW031,0.00,VWS V12.08,2013-04-13 10:04:00,
2013-04-13 06:09:00,40.0,24.2,29.85,West,273,0.0,0.0,53,0.00,,FEW031,0.00,VWS V12.08,2013-04-13 10:09:00,
2013-04-13 06:14:00,39.8,24.1,29.88,SW,225,0.0,0.0,53,0.00,,FEW031,0.00,VWS V12.08,2013-04-13 10:14:00,
2013-04-13 06:19:00,39.8,24.5,29.88,SW,233,0.0,0.0,54,0.00,,FEW031,0.00,VWS V12.08,2013-04-13 10:19:00,
2013-04-13 06:24:00,39.6,24.3,29.88,WSW,240,0.0,0.0,54,0.00,,FEW031,0.00,VWS V12.08,2013-04-13 10:24:00,
2013-04-13 06:30:00,39.4,24.2,29.88,WSW,242,0.0,0.0,54,0.00,,FEW031,0.00,VWS V12.08,2013-04-13 10:30:00,
2013-04-13 06:35:00,39.4,24.6,29.88,SW,224,0.0,0.0,55,0.00,,FEW031,0.00,VWS V12.08,2013-04-13 10:35:00,
2013-04-13 06:40:00,39.4,24.6,29.88,WSW,242,0.0,0.0,55,0.00,,FEW031,0.00,VWS V12.08,2013-04-13 10:40:00,
2013-04-13 06:45:00,39.4,25.0,29.88,SW,232,0.0,0.0,56,0.00,,CLR,0.00,VWS V12.08,2013-04-13 10:45:00,
2013-04-13 06:50:00,39.4,25.0,29.88,WSW,244,0.0,0.0,56,0.00,,CLR,0.00,VWS V12.08,2013-04-13 10:50:00,
2013-04-13 06:55:00,39.4,25.0,29.88,SW,234,0.0,0.0,56,0.00,,CLR,0.00,VWS V12.08,2013-04-13 10:55:00,
2013-04-13 07:01:00,39.4,25.5,29.88,SW,224,0.0,0.0,57,0.00,,CLR,0.00,VWS V12.08,2013-04-13 11:01:00,
2013-04-13 07:06:00,40.0,26.0,29.88,SW,233,0.0,0.0,57,0.00,,CLR,0.00,VWS V12.08,2013-04-13 11:06:00,
2013-04-13 07:11:00,40.5,25.2,29.88,SW,217,0.0,0.0,54,0.00,,CLR,0.00,VWS V12.08,2013-04-13 11:11:00,
2013-04-13 07:16:00,40.5,24.7,29.88,WSW,244,0.0,0.0,53,0.00,,CLR,0.00,VWS V12.08,2013-04-13 11:16:00,
2013-04-13 07:21:00,40.7,24.9,29.88,SW,228,3.6,4.0,53,0.00,,CLR,0.00,VWS V12.08,2013-04-13 11:21:00,
2013-04-13 07:26:00,41.0,25.2,29.88,SW,221,4.9,4.9,53,0.00,,CLR,0.00,VWS V12.08,2013-04-13 11:26:00,
2013-04-13 07:31:00,41.0,25.2,29.88,SW,214,4.0,4.9,53,0.00,,CLR,0.00,VWS V12.08,2013-04-13 11:31:00,
2013-04-13 07:36:00,41.2,24.9,29.88,SSW,212,3.6,4.5,52,0.00,,CLR,0.00,VWS V12.08,2013-04-13 11:36:00,
2013-04-13 07:41:00,41.6,25.3,29.91,WSW,239,3.6,5.4,52,0.00,,CLR,0.00,VWS V12.08,2013-04-13 11:41:00,
2013-04-13 07:46:00,41.9,25.1,29.91,SW,220,4.0,4.0,51,0.00,,CLR,0.00,VWS V12.08,2013-04-13 11:46:00,
2013-04-13 07:51:00,42.5,25.2,29.91,SW,224,5.8,5.8,50,0.00,,CLR,0.00,VWS V12.08,2013-04-13 11:51:00,
2013-04-13 07:56:00,42.5,25.2,29.91,SSW,202,4.0,5.4,50,0.00,,CLR,0.00,VWS V12.08,2013-04-13 11:56:00,
2013-04-13 08:02:00,42.7,25.3,29.91,SW,236,5.4,5.4,50,0.00,,CLR,0.00,VWS V12.08,2013-04-13 12:02:00,
2013-04-13 08:07:00,42.8,25.5,29.91,SSW,201,4.9,4.9,50,0.00,,CLR,0.00,VWS V12.08,2013-04-13 12:07:00,
2013-04-13 08:12:00,43.0,26.1,29.91,SW,228,4.0,4.0,51,0.00,,CLR,0.00,VWS V12.08,2013-04-13 12:12:00,
2013-04-13 08:17:00,43.0,25.7,29.91,SW,223,3.1,4.0,50,0.00,,CLR,0.00,VWS V12.08,2013-04-13 12:17:00,
2013-04-13 08:22:00,43.2,25.8,29.91,SW,227,5.4,6.3,50,0.00,,CLR,0.00,VWS V12.08,2013-04-13 12:22:00,
2013-04-13 08:27:00,43.4,25.5,29.91,South,189,5.8,5.8,49,0.00,,CLR,0.00,VWS V12.08,2013-04-13 12:27:00,
2013-04-13 08:32:00,43.7,26.3,29.91,SSW,204,4.9,5.8,50,0.00,,CLR,0.00,VWS V12.08,2013-04-13 12:32:00,
2013-04-13 08:37:00,43.9,26.0,29.91,SW,233,5.4,5.8,49,0.00,,CLR,0.00,VWS V12.08,2013-04-13 12:37:00,
2013-04-13 08:43:00,44.1,25.7,29.91,WSW,246,4.0,6.3,48,0.00,,CLR,0.00,VWS V12.08,2013-04-13 12:43:00,
2013-04-13 08:48:00,44.3,25.9,29.91,SSW,198,3.6,6.3,48,0.00,,CLR,0.00,VWS V12.08,2013-04-13 12:48:00,
2013-04-13 08:53:00,44.3,25.9,29.91,SSW,212,4.9,6.7,48,0.00,,CLR,0.00,VWS V12.08,2013-04-13 12:53:00,
2013-04-13 08:58:00,44.5,26.0,29.91,SSW,210,6.3,6.3,48,0.00,,CLR,0.00,VWS V12.08,2013-04-13 12:58:00,
2013-04-13 09:03:00,44.8,26.3,29.91,WSW,243,3.6,6.3,48,0.00,,CLR,0.00,VWS V12.08,2013-04-13 13:03:00,
2013-04-13 09:08:00,44.8,26.3,29.91,SW,216,5.8,6.3,48,0.00,,CLR,0.00,VWS V12.08,2013-04-13 13:08:00,
2013-04-13 09:14:00,45.0,26.5,29.91,SW,214,2.7,4.0,48,0.00,,CLR,0.00,VWS V12.08,2013-04-13 13:14:00,
2013-04-13 09:19:00,45.4,26.8,29.91,SW,231,8.1,8.1,48,0.00,,CLR,0.00,VWS V12.08,2013-04-13 13:19:00,
2013-04-13 09:25:00,45.5,26.5,29.91,SSW,197,6.3,6.3,47,0.00,,CLR,0.00,VWS V12.08,2013-04-13 13:25:00,
2013-04-13 09:30:00,45.7,26.1,29.91,WSW,251,5.4,6.3,46,0.00,,OVC050,0.00,VWS V12.08,2013-04-13 13:30:00,
2013-04-13 09:35:00,46.4,25.7,29.91,SW,225,4.0,4.0,44,0.00,,OVC050,0.00,VWS V12.08,2013-04-13 13:35:00,
2013-04-13 09:40:00,47.0,26.8,29.91,WNW,285,4.9,5.8,45,0.00,,OVC050,0.00,VWS V12.08,2013-04-13 13:40:00,
2013-04-13 09:45:00,47.3,25.4,29.91,SW,221,4.0,6.3,42,0.00,,OVC048,0.00,VWS V12.08,2013-04-13 13:45:00,
2013-04-13 09:51:00,47.2,26.4,29.91,SW,227,6.3,6.3,44,0.00,,OVC048,0.00,VWS V12.08,2013-04-13 13:51:00,
2013-04-13 09:56:00,47.3,26.0,29.91,SSW,201,4.0,5.4,43,0.00,,OVC048,0.00,VWS V12.08,2013-04-13 13:56:00,
2013-04-13 10:01:00,47.2,24.7,29.91,SW,226,4.9,6.3,41,0.00,,OVC048,0.00,VWS V12.08,2013-04-13 14:01:00,
2013-04-13 10:07:00,47.0,24.5,29.91,SW,219,5.4,6.7,41,0.00,,OVC048,0.00,VWS V12.08,2013-04-13 14:07:00,
2013-04-13 10:12:00,47.3,24.9,29.91,SSW,198,5.4,6.3,41,0.00,,OVC048,0.00,VWS V12.08,2013-04-13 14:12:00,
2013-04-13 10:17:00,47.2,24.7,29.91,SW,228,5.4,8.1,41,0.00,,OVC048,0.00,VWS V12.08,2013-04-13 14:17:00,
2013-04-13 10:22:00,47.5,25.0,29.91,WSW,252,3.6,8.1,41,0.00,,OVC048,0.00,VWS V12.08,2013-04-13 14:22:00,
2013-04-13 10:27:00,47.7,25.2,29.91,SSW,198,6.3,8.1,41,0.00,,OVC048,0.00,VWS V12.08,2013-04-13 14:27:00,
2013-04-13 10:33:00,48.1,25.5,29.91,SW,232,5.8,7.6,41,0.00,,OVC048,0.00,VWS V12.08,2013-04-13 14:33:00,
2013-04-13 10:38:00,48.2,25.7,29.91,SSW,207,3.6,5.8,41,0.00,,OVC048,0.00,VWS V12.08,2013-04-13 14:38:00,
2013-04-13 10:43:00,48.2,25.7,29.91,SSW,206,5.8,7.6,41,0.00,,OVC048,0.00,VWS V12.08,2013-04-13 14:43:00,
2013-04-13 10:49:00,47.9,25.9,29.91,SW,235,4.0,8.3,42,0.00,,OVC048,0.00,VWS V12.08,2013-04-13 14:49:00,
2013-04-13 11:00:00,49.0,25.7,29.91,SW,215,5.8,6.3,40,0.00,,OVC048,0.00,VWS V12.08,2013-04-13 15:00:00,
2013-04-13 11:30:00,51.5,26.1,29.91,SW,229,10.1,10.1,37,0.00,,OVC048,0.00,VWS V12.08,2013-04-13 15:30:00,
2013-04-13 11:45:00,51.1,26.4,29.91,SW,232,3.6,3.6,38,0.00,,OVC048,0.00,VWS V12.08,2013-04-13 15:45:00,
2013-04-13 11:53:00,52.6,27.0,29.91,WSW,257,5.4,5.8,37,0.00,,BKN041,0.00,VWS V12.08,2013-04-13 15:53:00,
2013-04-13 11:58:00,52.0,26.6,29.91,SSW,201,5.4,5.4,37,0.00,,BKN041,0.00,VWS V12.08,2013-04-13 15:58:00,
2013-04-13 12:04:00,51.8,26.4,29.91,SW,226,5.8,5.8,37,0.00,,BKN041,0.00,VWS V12.08,2013-04-13 16:04:00,
2013-04-13 12:09:00,52.9,27.4,29.91,SSW,211,10.1,10.1,37,0.00,,BKN041,0.00,VWS V12.08,2013-04-13 16:09:00,
2013-04-13 12:14:00,52.7,27.2,29.91,WSW,250,5.8,5.8,37,0.00,,BKN041,0.00,VWS V12.08,2013-04-13 16:14:00,
2013-04-13 12:19:00,53.3,27.0,29.91,South,191,3.1,6.3,36,0.00,,BKN041,0.00,VWS V12.08,2013-04-13 16:19:00,
2013-04-13 12:24:00,54.0,28.3,29.91,SW,214,8.1,8.1,37,0.00,,BKN041,0.00,VWS V12.08,2013-04-13 16:24:00,
2013-04-13 12:29:00,55.1,28.6,29.88,WSW,239,10.1,10.1,36,0.00,,BKN041,0.00,VWS V12.08,2013-04-13 16:29:00,
2013-04-13 12:34:00,55.3,28.8,29.88,SSE,150,6.3,10.5,36,0.00,,BKN041,0.00,VWS V12.08,2013-04-13 16:34:00,
2013-04-13 12:39:00,55.4,29.0,29.88,WNW,297,7.6,8.7,36,0.00,,BKN041,0.00,VWS V12.08,2013-04-13 16:39:00,
2013-04-13 12:44:00,54.9,27.8,29.88,SSW,213,5.8,8.7,35,0.00,,BKN041,0.00,VWS V12.08,2013-04-13 16:44:00,
2013-04-13 12:49:00,55.3,28.1,29.88,SSW,208,6.3,8.3,35,0.00,,BKN043,0.00,VWS V12.08,2013-04-13 16:49:00,
2013-04-13 12:55:00,54.9,27.8,29.88,West,273,5.8,6.3,35,0.00,,BKN043,0.00,VWS V12.08,2013-04-13 16:55:00,
2013-04-13 13:00:00,55.4,28.3,29.88,SW,226,8.3,8.7,35,0.00,,BKN043,0.00,VWS V12.08,2013-04-13 17:00:00,
2013-04-13 13:05:00,55.8,29.3,29.88,SSW,206,9.2,9.2,36,0.00,,BKN043,0.00,VWS V12.08,2013-04-13 17:05:00,
2013-04-13 13:10:00,56.3,29.1,29.88,SSW,199,6.3,11.0,35,0.00,,BKN043,0.00,VWS V12.08,2013-04-13 17:10:00,
2013-04-13 13:15:00,57.4,30.0,29.88,SW,218,6.3,10.1,35,0.00,,BKN043,0.00,VWS V12.08,2013-04-13 17:15:00,
2013-04-13 13:20:00,58.0,30.5,29.88,SW,215,8.1,8.1,35,0.00,,BKN043,0.00,VWS V12.08,2013-04-13 17:20:00,
2013-04-13 13:25:00,58.9,30.6,29.88,SW,222,5.8,7.6,34,0.00,,BKN043,0.00,VWS V12.08,2013-04-13 17:25:00,
2013-04-13 13:30:00,59.2,30.9,29.88,SW,217,6.3,8.1,34,0.00,,BKN043,0.00,VWS V12.08,2013-04-13 17:30:00,
2013-04-13 13:35:00,58.7,30.4,29.88,SSW,207,10.5,12.3,34,0.00,,BKN043,0.00,VWS V12.08,2013-04-13 17:35:00,
2013-04-13 13:40:00,58.1,30.6,29.88,SW,227,8.7,8.7,35,0.00,,BKN043,0.00,VWS V12.08,2013-04-13 17:40:00,
2013-04-13 13:45:00,58.1,29.9,29.88,SW,220,5.4,8.7,34,0.00,,BKN049,0.00,VWS V12.08,2013-04-13 17:45:00,
2013-04-13 13:51:00,59.0,30.7,29.88,SSW,193,9.2,12.8,34,0.00,,BKN049,0.00,VWS V12.08,2013-04-13 17:51:00,
2013-04-13 13:57:00,58.7,30.4,29.88,SW,226,5.4,10.5,34,0.00,,BKN049,0.00,VWS V12.08,2013-04-13 17:57:00,
2013-04-13 14:02:00,59.2,30.9,29.88,SW,215,4.9,8.1,34,0.00,,BKN049,0.00,VWS V12.08,2013-04-13 18:02:00,
2013-04-13 14:07:00,58.7,28.9,29.88,SSW,204,8.7,12.8,32,0.00,,BKN049,0.00,VWS V12.08,2013-04-13 18:07:00,
2013-04-13 14:12:00,59.2,30.9,29.88,South,188,6.3,8.3,34,0.00,,BKN049,0.00,VWS V12.08,2013-04-13 18:12:00,
2013-04-13 14:17:00,58.9,29.1,29.88,SW,220,5.4,8.3,32,0.00,,BKN049,0.00,VWS V12.08,2013-04-13 18:17:00,
2013-04-13 14:22:00,59.0,29.2,29.88,NW,311,5.4,5.8,32,0.00,,BKN049,0.00,VWS V12.08,2013-04-13 18:22:00,
2013-04-13 14:27:00,59.8,29.9,29.88,SSW,195,5.8,5.8,32,0.00,,BKN049,0.00,VWS V12.08,2013-04-13 18:27:00,
2013-04-13 14:32:00,60.5,29.7,29.88,NW,313,3.1,7.6,31,0.00,,BKN049,0.00,VWS V12.08,2013-04-13 18:32:00,
2013-04-13 14:37:00,60.3,29.6,29.88,SW,214,10.1,13.2,31,0.00,,BKN049,0.00,VWS V12.08,2013-04-13 18:37:00,
2013-04-13 14:42:00,59.2,29.4,29.85,SSW,197,7.6,11.9,32,0.00,,BKN049,0.00,VWS V12.08,2013-04-13 18:42:00,
2013-04-13 14:47:00,59.4,29.6,29.85,WSW,249,8.3,10.1,32,0.00,,FEW055,0.00,VWS V12.08,2013-04-13 18:47:00,
2013-04-13 14:52:00,59.8,29.9,29.85,SW,216,5.4,8.7,32,0.00,,FEW055,0.00,VWS V12.08,2013-04-13 18:52:00,
2013-04-13 14:57:00,60.1,30.2,29.85,SW,217,8.3,10.5,32,0.00,,FEW055,0.00,VWS V12.08,2013-04-13 18:57:00,
2013-04-13 15:02:00,60.8,30.0,29.85,SSW,202,8.1,10.5,31,0.00,,FEW055,0.00,VWS V12.08,2013-04-13 19:02:00,
2013-04-13 15:07:00,61.0,28.6,29.85,SW,222,7.2,10.1,29,0.00,,FEW055,0.00,VWS V12.08,2013-04-13 19:07:00,
2013-04-13 15:12:00,61.2,30.4,29.85,SW,233,5.4,8.3,31,0.00,,FEW055,0.00,VWS V12.08,2013-04-13 19:12:00,
2013-04-13 15:17:00,61.2,28.7,29.85,SW,227,8.7,13.2,29,0.00,,FEW055,0.00,VWS V12.08,2013-04-13 19:17:00,
2013-04-13 15:22:00,61.2,30.4,29.85,SW,215,5.4,8.1,31,0.00,,FEW055,0.00,VWS V12.08,2013-04-13 19:22:00,
2013-04-13 15:27:00,60.8,30.0,29.85,SSW,205,11.0,11.0,31,0.00,,FEW055,0.00,VWS V12.08,2013-04-13 19:27:00,
2013-04-13 15:32:00,61.4,28.9,29.85,SSW,194,10.1,12.3,29,0.00,,FEW055,0.00,VWS V12.08,2013-04-13 19:32:00,
2013-04-13 15:37:00,61.4,28.9,29.85,SW,220,8.1,10.1,29,0.00,,FEW055,0.00,VWS V12.08,2013-04-13 19:37:00,
2013-04-13 15:42:00,61.0,28.6,29.85,SW,217,13.2,15.4,29,0.00,,FEW055,0.00,VWS V12.08,2013-04-13 19:42:00,
2013-04-13 15:47:00,60.1,27.8,29.85,WSW,237,8.7,8.7,29,0.00,,CLR,0.00,VWS V12.08,2013-04-13 19:47:00,
2013-04-13 15:52:00,61.0,28.6,29.85,SW,222,10.1,10.1,29,0.00,,CLR,0.00,VWS V12.08,2013-04-13 19:52:00,
2013-04-13 15:57:00,61.6,29.0,29.85,WSW,239,9.2,9.2,29,0.00,,CLR,0.00,VWS V12.08,2013-04-13 19:57:00,
2013-04-13 16:02:00,61.9,29.3,29.85,SSW,207,6.3,8.7,29,0.00,,CLR,0.00,VWS V12.08,2013-04-13 20:02:00,
2013-04-13 16:07:00,61.2,28.7,29.85,WSW,250,7.6,14.5,29,0.00,,CLR,0.00,VWS V12.08,2013-04-13 20:07:00,
2013-04-13 16:13:00,61.2,28.7,29.85,WSW,252,8.3,8.3,29,0.00,,CLR,0.00,VWS V12.08,2013-04-13 20:13:00,
2013-04-13 16:18:00,61.2,28.7,29.85,WSW,246,7.6,7.6,29,0.00,,CLR,0.00,VWS V12.08,2013-04-13 20:18:00,
2013-04-13 16:23:00,61.0,28.6,29.85,SW,217,8.7,13.2,29,0.00,,CLR,0.00,VWS V12.08,2013-04-13 20:23:00,
2013-04-13 16:28:00,61.0,28.6,29.85,SSW,213,6.3,10.1,29,0.00,,CLR,0.00,VWS V12.08,2013-04-13 20:28:00,
2013-04-13 16:33:00,61.4,28.9,29.85,WSW,239,10.5,12.3,29,0.00,,CLR,0.00,VWS V12.08,2013-04-13 20:33:00,
2013-04-13 16:38:00,60.8,28.4,29.85,SW,228,8.3,12.8,29,0.00,,CLR,0.00,VWS V12.08,2013-04-13 20:38:00,
2013-04-13 16:43:00,60.7,28.2,29.85,SW,217,9.6,12.8,29,0.00,,CLR,0.00,VWS V12.08,2013-04-13 20:43:00,
2013-04-13 16:48:00,60.7,28.2,29.85,SW,219,8.1,12.8,29,0.00,,CLR,0.00,VWS V12.08,2013-04-13 20:48:00,
2013-04-13 16:53:00,60.3,27.9,29.85,SSW,201,12.3,12.3,29,0.00,,CLR,0.00,VWS V12.08,2013-04-13 20:53:00,
2013-04-13 16:58:00,60.1,27.8,29.85,SW,216,8.1,15.4,29,0.00,,CLR,0.00,VWS V12.08,2013-04-13 20:58:00,
2013-04-13 17:03:00,60.5,28.1,29.85,SSW,200,7.2,8.1,29,0.00,,CLR,0.00,VWS V12.08,2013-04-13 21:03:00,
2013-04-13 17:08:00,60.3,25.3,29.85,SW,214,8.1,10.5,26,0.00,,CLR,0.00,VWS V12.08,2013-04-13 21:08:00,
2013-04-13 17:13:00,60.5,28.1,29.85,SW,231,5.8,8.7,29,0.00,,CLR,0.00,VWS V12.08,2013-04-13 21:13:00,
2013-04-13 17:18:00,60.3,25.3,29.85,SW,235,4.0,13.2,26,0.00,,CLR,0.00,VWS V12.08,2013-04-13 21:18:00,
2013-04-13 17:23:00,60.1,26.0,29.85,South,191,5.8,8.3,27,0.00,,CLR,0.00,VWS V12.08,2013-04-13 21:23:00,
2013-04-13 17:28:00,60.1,26.0,29.85,SSW,213,8.3,11.0,27,0.00,,CLR,0.00,VWS V12.08,2013-04-13 21:28:00,
2013-04-13 17:33:00,59.8,25.7,29.85,WSW,242,5.8,12.8,27,0.00,,FEW070,0.00,VWS V12.08,2013-04-13 21:33:00,
2013-04-13 17:38:00,59.9,25.9,29.85,WSW,241,8.7,9.6,27,0.00,,FEW070,0.00,VWS V12.08,2013-04-13 21:38:00,
2013-04-13 17:43:00,59.8,25.7,29.85,SSW,210,4.0,8.7,27,0.00,,FEW070,0.00,VWS V12.08,2013-04-13 21:43:00,
2013-04-13 17:48:00,59.8,25.7,29.85,South,175,5.8,7.6,27,0.00,,CLR,0.00,VWS V12.08,2013-04-13 21:48:00,
2013-04-13 17:53:00,59.8,25.7,29.85,SW,223,8.3,8.3,27,0.00,,CLR,0.00,VWS V12.08,2013-04-13 21:53:00,
2013-04-13 17:58:00,59.4,25.4,29.85,SW,220,7.6,8.3,27,0.00,,CLR,0.00,VWS V12.08,2013-04-13 21:58:00,
2013-04-13 18:03:00,58.9,25.0,29.85,WSW,258,10.1,11.0,27,0.00,,CLR,0.00,VWS V12.08,2013-04-13 22:03:00,
2013-04-13 18:08:00,58.9,25.0,29.85,SW,233,5.4,7.2,27,0.00,,CLR,0.00,VWS V12.08,2013-04-13 22:08:00,
2013-04-13 18:13:00,58.9,25.0,29.85,SW,227,6.3,8.7,27,0.00,,CLR,0.00,VWS V12.08,2013-04-13 22:13:00,
2013-04-13 18:18:00,58.7,24.8,29.85,SSW,208,6.7,10.1,27,0.00,,CLR,0.00,VWS V12.08,2013-04-13 22:18:00,
2013-04-13 18:23:00,58.7,24.8,29.85,West,262,5.4,7.6,27,0.00,,CLR,0.00,VWS V12.08,2013-04-13 22:23:00,
2013-04-13 18:28:00,58.5,24.7,29.85,SW,220,5.4,8.3,27,0.00,,CLR,0.00,VWS V12.08,2013-04-13 22:28:00,
2013-04-13 18:33:00,58.0,24.2,29.85,SW,218,4.0,8.1,27,0.00,,CLR,0.00,VWS V12.08,2013-04-13 22:33:00,
2013-04-13 18:38:00,58.0,24.2,29.85,South,179,4.0,7.6,27,0.00,,CLR,0.00,VWS V12.08,2013-04-13 22:38:00,
2013-04-13 18:43:00,58.0,25.9,29.88,SW,216,4.5,4.5,29,0.00,,CLR,0.00,VWS V12.08,2013-04-13 22:43:00,
2013-04-13 18:48:00,58.0,24.2,29.88,WSW,240,4.0,6.3,27,0.00,,CLR,0.00,VWS V12.08,2013-04-13 22:48:00,
2013-04-13 18:53:00,57.8,24.0,29.88,WSW,244,3.1,5.8,27,0.00,,CLR,0.00,VWS V12.08,2013-04-13 22:53:00,
2013-04-13 18:58:00,57.4,23.7,29.88,WSW,245,10.1,10.1,27,0.00,,CLR,0.00,VWS V12.08,2013-04-13 22:58:00,
2013-04-13 19:03:00,57.4,25.4,29.88,SSW,213,4.0,4.9,29,0.00,,CLR,0.00,VWS V12.08,2013-04-13 23:03:00,
2013-04-13 19:08:00,57.1,23.4,29.88,SW,224,5.4,5.8,27,0.00,,CLR,0.00,VWS V12.08,2013-04-13 23:08:00,
2013-04-13 19:13:00,56.7,23.1,29.88,SSW,208,8.7,8.7,27,0.00,,CLR,0.00,VWS V12.08,2013-04-13 23:13:00,
2013-04-13 19:18:00,56.5,23.0,29.88,SW,226,3.6,10.5,27,0.00,,CLR,0.00,VWS V12.08,2013-04-13 23:18:00,
2013-04-13 19:23:00,56.3,22.8,29.88,WNW,287,6.3,6.3,27,0.00,,CLR,0.00,VWS V12.08,2013-04-13 23:23:00,
2013-04-13 19:28:00,56.2,25.2,29.88,SSW,209,3.6,4.0,30,0.00,,CLR,0.00,VWS V12.08,2013-04-13 23:28:00,
2013-04-13 19:33:00,55.8,24.9,29.88,WSW,257,4.9,7.6,30,0.00,,CLR,0.00,VWS V12.08,2013-04-13 23:33:00,
2013-04-13 19:38:00,55.4,24.5,29.88,WSW,238,3.1,4.0,30,0.00,,CLR,0.00,VWS V12.08,2013-04-13 23:38:00,
2013-04-13 19:43:00,55.3,24.4,29.88,SW,233,4.0,5.4,30,0.00,,CLR,0.00,VWS V12.08,2013-04-13 23:43:00,
2013-04-13 19:48:00,55.3,24.4,29.88,SSW,197,4.0,6.3,30,0.00,,CLR,0.00,VWS V12.08,2013-04-13 23:48:00,
2013-04-13 19:53:00,54.9,24.1,29.88,SSW,205,4.0,5.8,30,0.00,,CLR,0.00,VWS V12.08,2013-04-13 23:53:00,
2013-04-13 19:58:00,54.7,23.9,29.88,South,184,4.0,4.0,30,0.00,,CLR,0.00,VWS V12.08,2013-04-13 23:58:00,
2013-04-13 20:03:00,54.4,23.6,29.88,SW,231,3.6,5.8,30,0.00,,CLR,0.00,VWS V12.08,2013-04-14 00:03:00,
2013-04-13 20:08:00,54.0,23.3,29.88,SW,215,0.0,0.0,30,0.00,,CLR,0.00,VWS V12.08,2013-04-14 00:08:00,
2013-04-13 20:13:00,53.8,23.1,29.88,SW,220,6.3,6.3,30,0.00,,CLR,0.00,VWS V12.08,2013-04-14 00:13:00,
2013-04-13 20:18:00,53.8,23.1,29.88,SW,217,3.6,4.5,30,0.00,,CLR,0.00,VWS V12.08,2013-04-14 00:18:00,
2013-04-13 20:23:00,53.6,23.0,29.88,SSW,196,3.1,4.5,30,0.00,,CLR,0.00,VWS V12.08,2013-04-14 00:23:00,
2013-04-13 20:28:00,53.3,22.7,29.88,SSW,212,6.3,7.6,30,0.00,,CLR,0.00,VWS V12.08,2013-04-14 00:28:00,
2013-04-13 20:33:00,53.3,22.7,29.88,SSW,213,0.0,5.8,30,0.00,,CLR,0.00,VWS V12.08,2013-04-14 00:33:00,
2013-04-13 20:38:00,53.5,22.8,29.88,WSW,248,7.2,7.2,30,0.00,,CLR,0.00,VWS V12.08,2013-04-14 00:38:00,
2013-04-13 20:43:00,53.3,22.7,29.91,SW,225,3.6,6.3,30,0.00,,CLR,0.00,VWS V12.08,2013-04-14 00:43:00,
2013-04-13 20:48:00,53.1,22.5,29.91,SW,224,3.6,4.0,30,0.00,,CLR,0.00,VWS V12.08,2013-04-14 00:48:00,
2013-04-13 20:53:00,52.7,23.0,29.91,WSW,248,4.0,6.3,31,0.00,,CLR,0.00,VWS V12.08,2013-04-14 00:53:00,
2013-04-13 20:58:00,52.9,23.1,29.91,SW,233,2.7,3.1,31,0.00,,CLR,0.00,VWS V12.08,2013-04-14 00:58:00,
2013-04-13 21:03:00,52.7,23.0,29.91,SW,227,3.6,5.4,31,0.00,,CLR,0.00,VWS V12.08,2013-04-14 01:03:00,
2013-04-13 21:08:00,52.6,22.8,29.91,SW,215,3.1,4.9,31,0.00,,CLR,0.00,VWS V12.08,2013-04-14 01:08:00,
2013-04-13 21:13:00,52.4,22.6,29.91,SSW,211,3.1,4.0,31,0.00,,CLR,0.00,VWS V12.08,2013-04-14 01:13:00,
2013-04-13 21:18:00,52.0,23.8,29.91,SSW,202,0.0,0.0,33,0.00,,CLR,0.00,VWS V12.08,2013-04-14 01:18:00,
2013-04-13 21:23:00,51.8,22.2,29.91,SW,233,0.0,0.0,31,0.00,,CLR,0.00,VWS V12.08,2013-04-14 01:23:00,
2013-04-13 21:28:00,51.7,23.5,29.91,SSW,211,0.0,0.0,33,0.00,,CLR,0.00,VWS V12.08,2013-04-14 01:28:00,
2013-04-13 21:33:00,51.5,23.4,29.91,SSW,209,0.0,0.0,33,0.00,,CLR,0.00,VWS V12.08,2013-04-14 01:33:00,
2013-04-13 21:38:00,51.3,23.2,29.91,SW,225,0.0,0.0,33,0.00,,CLR,0.00,VWS V12.08,2013-04-14 01:38:00,
2013-04-13 21:43:00,51.3,23.2,29.91,WSW,247,0.0,0.0,33,0.00,,CLR,0.00,VWS V12.08,2013-04-14 01:43:00,
2013-04-13 21:48:00,51.1,23.7,29.91,WSW,245,0.0,0.0,34,0.00,,CLR,0.00,VWS V12.08,2013-04-14 01:48:00,
2013-04-13 21:53:00,50.8,23.4,29.91,WSW,245,0.0,0.0,34,0.00,,CLR,0.00,VWS V12.08,2013-04-14 01:53:00,
2013-04-13 21:58:00,50.6,23.3,29.94,WNW,283,0.0,0.0,34,0.00,,CLR,0.00,VWS V12.08,2013-04-14 01:58:00,
2013-04-13 22:03:00,50.4,24.5,29.94,NNE,18,0.0,0.0,36,0.00,,CLR,0.00,VWS V12.08,2013-04-14 02:03:00,
2013-04-13 22:08:00,50.2,24.3,29.94,NE,38,0.0,0.0,36,0.00,,CLR,0.00,VWS V12.08,2013-04-14 02:08:00,
2013-04-13 22:13:00,49.9,24.0,29.94,NE,37,0.0,0.0,36,0.00,,CLR,0.00,VWS V12.08,2013-04-14 02:13:00,
2013-04-13 22:18:00,49.7,23.8,29.94,NE,47,0.0,0.0,36,0.00,,CLR,0.00,VWS V12.08,2013-04-14 02:18:00,
2013-04-13 22:23:00,49.3,24.2,29.94,NE,45,0.0,0.0,37,0.00,,CLR,0.00,VWS V12.08,2013-04-14 02:23:00,
2013-04-13 22:28:00,49.0,23.8,29.94,NE,45,2.7,3.1,37,0.00,,CLR,0.00,VWS V12.08,2013-04-14 02:28:00,
2013-04-13 22:33:00,48.8,24.3,29.94,NE,45,3.1,3.1,38,0.00,,CLR,0.00,VWS V12.08,2013-04-14 02:33:00,
2013-04-13 22:38:00,48.6,24.8,29.94,NE,41,2.7,3.1,39,0.00,,CLR,0.00,VWS V12.08,2013-04-14 02:38:00,
2013-04-13 22:43:00,48.2,24.5,29.94,NE,41,0.0,2.7,39,0.00,,CLR,0.00,VWS V12.08,2013-04-14 02:43:00,
2013-04-13 22:48:00,48.1,24.9,29.94,NE,41,0.0,2.2,40,0.00,,CLR,0.00,VWS V12.08,2013-04-14 02:48:00,
2013-04-13 22:53:00,47.9,24.7,29.94,NE,41,0.0,0.0,40,0.00,,CLR,0.00,VWS V12.08,2013-04-14 02:53:00,
2013-04-13 22:58:00,47.9,24.7,29.94,NE,41,0.0,0.0,40,0.00,,CLR,0.00,VWS V12.08,2013-04-14 02:58:00,
2013-04-13 23:04:00,47.7,24.6,29.94,NE,41,0.0,0.0,40,0.00,,CLR,0.00,VWS V12.08,2013-04-14 03:04:00,
2013-04-13 23:08:00,47.7,25.2,29.94,NE,41,0.0,0.0,41,0.00,,CLR,0.00,VWS V12.08,2013-04-14 03:08:00,
2013-04-13 23:14:00,47.5,25.0,29.94,NE,41,0.0,0.0,41,0.00,,CLR,0.00,VWS V12.08,2013-04-14 03:14:00,
2013-04-13 23:18:00,47.3,24.9,29.94,NE,41,0.0,0.0,41,0.00,,CLR,0.00,VWS V12.08,2013-04-14 03:18:00,
2013-04-13 23:24:00,47.3,25.4,29.94,NE,41,0.0,0.0,42,0.00,,CLR,0.00,VWS V12.08,2013-04-14 03:24:00,
2013-04-13 23:29:00,47.3,25.4,29.94,NE,41,0.0,0.0,42,0.00,,CLR,0.00,VWS V12.08,2013-04-14 03:29:00,
2013-04-13 23:34:00,47.3,25.4,29.94,NE,41,0.0,0.0,42,0.00,,CLR,0.00,VWS V12.08,2013-04-14 03:34:00,
2013-04-13 23:39:00,47.3,25.4,29.94,NE,41,0.0,0.0,42,0.00,,CLR,0.00,VWS V12.08,2013-04-14 03:39:00,
2013-04-13 23:44:00,47.3,25.4,29.94,NE,41,0.0,0.0,42,0.00,,CLR,0.00,VWS V12.08,2013-04-14 03:44:00,
2013-04-13 23:49:00,47.2,25.3,29.94,NE,41,0.0,0.0,42,0.00,,CLR,0.00,VWS V12.08,2013-04-14 03:49:00,
2013-04-13 23:54:00,47.2,25.3,29.94,NE,41,0.0,0.0,42,0.00,,CLR,0.00,VWS V12.08,2013-04-14 03:54:00,
2013-04-13 23:59:00,47.0,25.7,29.94,NE,41,0.0,0.0,43,0.00,,CLR,0.00,VWS V12.08,2013-04-14 03:59:00,